Terminal Aerodrome Forecast
Issued by NWS

Home | Current Version | Previous Version | Text Only | Print | Product List | Glossary On
Versions: 1 2 3 4 5 6 7 8 9 10 11 12
000
FTUS44 KLZK 062300 RRA
TAFLLQ
TAF
KLLQ 062345Z 0700/0724 15008KT P6SM SCT060 BKN150
     FM070100 15006KT P6SM BKN150
     FM071000 18009KT P6SM SCT020 BKN080
     FM071600 18010G18KT P6SM SCT035 SCT060=

USA.gov is the U.S. government's official web portal to all federal, state and local government web resources and services.